createdAt,value
2023-05-06T00:00:13.041Z,101337.29
2023-05-06T00:03:03.618Z,101341.39
2023-05-06T00:05:32.349Z,101336.95
2023-05-06T00:08:01.362Z,101337.33
2023-05-06T00:10:29.962Z,101335.58
2023-05-06T00:12:58.549Z,101334.32
2023-05-06T00:15:28.031Z,101334.69
2023-05-06T00:17:57.973Z,101333.97
2023-05-06T00:20:27.521Z,101340.56
2023-05-06T00:22:56.237Z,101340.72
2023-05-06T00:25:25.036Z,101341.61
2023-05-06T00:27:54.043Z,101341.60
2023-05-06T00:30:23.272Z,101339.77
2023-05-06T00:32:52.088Z,101335.48
2023-05-06T00:35:20.968Z,101335.65
2023-05-06T00:37:58.756Z,101334.04
2023-05-06T00:40:27.293Z,101333.33
2023-05-06T00:42:56.002Z,101333.67
2023-05-06T00:45:25.563Z,101336.45
2023-05-06T00:47:54.693Z,101338.43
2023-05-06T00:50:24.198Z,101338.04
2023-05-06T00:52:54.772Z,101343.38
2023-05-06T00:55:23.327Z,101343.58
2023-05-06T00:57:54.418Z,101337.02
2023-05-06T01:00:22.980Z,101340.65
2023-05-06T01:02:52.883Z,101335.69
2023-05-06T01:05:26.205Z,101336.95
2023-05-06T01:08:17.023Z,101340.04
2023-05-06T01:11:19.703Z,101342.69
2023-05-06T01:14:02.386Z,101345.67
2023-05-06T01:16:32.400Z,101347.95
2023-05-06T01:19:01.609Z,101350.27
2023-05-06T01:21:34.940Z,101349.17
2023-05-06T01:24:03.828Z,101346.31
2023-05-06T01:26:32.313Z,101345.21
2023-05-06T01:29:02.523Z,101347.55
2023-05-06T01:31:45.908Z,101353.31
2023-05-06T01:34:21.390Z,101351.80
2023-05-06T01:37:12.666Z,101347.77
2023-05-06T01:39:43.308Z,101347.92
2023-05-06T01:42:14.303Z,101342.48
2023-05-06T01:44:44.142Z,101342.84
2023-05-06T01:47:13.919Z,101344.34
2023-05-06T01:49:43.070Z,101346.83
2023-05-06T01:52:13.719Z,101356.66
2023-05-06T01:54:42.248Z,101357.05
2023-05-06T01:57:11.026Z,101357.60
2023-05-06T01:59:39.622Z,101361.49
2023-05-06T02:02:08.459Z,101362.78
2023-05-06T02:04:37.194Z,101364.38
2023-05-06T02:07:06.445Z,101365.39
2023-05-06T02:09:35.023Z,101368.81
2023-05-06T02:12:05.068Z,101368.59
2023-05-06T02:18:03.887Z,101368.86
2023-05-06T02:20:32.861Z,101364.98
2023-05-06T02:23:01.739Z,101362.11
2023-05-06T02:25:30.316Z,101364.63
2023-05-06T02:27:58.933Z,101366.48
2023-05-06T02:30:27.419Z,101368.81
2023-05-06T02:32:57.678Z,101368.75
2023-05-06T02:35:26.347Z,101370.23
2023-05-06T02:37:54.871Z,101372.54
2023-05-06T02:40:23.331Z,101379.52
2023-05-06T02:42:51.983Z,101378.27
2023-05-06T02:45:20.601Z,101379.04
2023-05-06T02:47:49.169Z,101378.65
2023-05-06T02:50:17.828Z,101381.66
2023-05-06T02:52:46.486Z,101383.42
2023-05-06T02:55:15.153Z,101383.82
2023-05-06T02:57:43.732Z,101384.91
2023-05-06T03:00:13.324Z,101386.16
2023-05-06T03:02:41.987Z,101384.74
2023-05-06T03:05:10.906Z,101385.45
2023-05-06T03:07:39.779Z,101383.68
2023-05-06T03:10:09.832Z,101391.73
2023-05-06T03:12:39.434Z,101393.05
2023-05-06T03:15:09.280Z,101398.67
2023-05-06T03:17:38.756Z,101400.23
2023-05-06T03:20:10.200Z,101397.02
2023-05-06T03:22:41.464Z,101401.96
2023-05-06T03:25:10.421Z,101406.23
2023-05-06T03:27:40.092Z,101407.61
2023-05-06T03:30:14.671Z,101407.08
2023-05-06T03:32:43.949Z,101408.38
2023-05-06T03:35:14.090Z,101411.36
2023-05-06T03:37:43.679Z,101409.91
2023-05-06T03:40:12.675Z,101412.20
2023-05-06T03:42:41.327Z,101414.28
2023-05-06T03:45:10.961Z,101414.77
2023-05-06T03:47:40.188Z,101422.71
2023-05-06T03:50:10.393Z,101422.52
2023-05-06T03:52:39.767Z,101424.34
2023-05-06T03:55:09.896Z,101424.46
2023-05-06T03:57:39.339Z,101433.30
2023-05-06T04:00:11.158Z,101437.84
2023-05-06T04:02:45.790Z,101436.13
2023-05-06T04:05:19.951Z,101439.98
2023-05-06T04:07:49.004Z,101440.98
2023-05-06T04:10:19.354Z,101447.86
2023-05-06T04:12:50.123Z,101440.63
2023-05-06T04:15:24.137Z,101441.27
2023-05-06T04:17:52.923Z,101447.39
2023-05-06T04:20:22.332Z,101447.08
2023-05-06T04:22:51.254Z,101450.38
2023-05-06T04:25:21.406Z,101452.41
2023-05-06T04:27:49.939Z,101457.45
2023-05-06T04:30:20.409Z,101460.14
2023-05-06T04:32:49.634Z,101464.66
2023-05-06T04:35:18.891Z,101460.78
2023-05-06T04:37:49.132Z,101466.83
2023-05-06T04:40:26.079Z,101467.73
2023-05-06T04:42:55.426Z,101469.06
2023-05-06T04:45:30.016Z,101465.63
2023-05-06T04:47:58.975Z,101466.34
2023-05-06T04:50:28.170Z,101467.05
2023-05-06T04:52:57.410Z,101470.56
2023-05-06T04:55:26.530Z,101473.67
2023-05-06T04:57:55.225Z,101476.63
2023-05-06T05:00:26.357Z,101476.77
2023-05-06T05:02:55.564Z,101475.25
2023-05-06T05:05:26.366Z,101473.53
2023-05-06T05:07:56.746Z,101475.39
2023-05-06T05:10:26.175Z,101479.36
2023-05-06T05:12:55.285Z,101474.48
2023-05-06T05:15:24.433Z,101476.05
2023-05-06T05:17:53.957Z,101475.59
2023-05-06T05:20:24.085Z,101479.52
2023-05-06T05:22:53.017Z,101476.24
2023-05-06T05:25:21.717Z,101480.81
2023-05-06T05:27:50.966Z,101480.91
2023-05-06T05:30:20.911Z,101478.02
2023-05-06T05:32:49.640Z,101479.23
2023-05-06T05:35:18.573Z,101472.59
2023-05-06T05:37:47.698Z,101476.38
2023-05-06T05:40:16.843Z,101480.36
2023-05-06T05:42:45.655Z,101480.53
2023-05-06T05:45:21.476Z,101483.60
2023-05-06T05:47:50.431Z,101484.92
2023-05-06T05:50:19.270Z,101485.55
2023-05-06T05:52:48.514Z,101484.34
2023-05-06T05:55:17.450Z,101482.23
2023-05-06T05:57:47.411Z,101483.17
2023-05-06T06:00:16.945Z,101487.21
2023-05-06T06:02:48.207Z,101486.86
2023-05-06T06:05:19.859Z,101488.45
2023-05-06T06:07:48.419Z,101485.77
2023-05-06T06:10:17.573Z,101483.73
2023-05-06T06:12:48.068Z,101487.25
2023-05-06T06:15:19.472Z,101486.92
2023-05-06T06:17:48.293Z,101488.48
2023-05-06T06:20:17.602Z,101478.70
2023-05-06T06:22:46.223Z,101482.34
2023-05-06T06:25:16.099Z,101486.73
2023-05-06T06:27:44.646Z,101487.14
2023-05-06T06:30:13.862Z,101486.14
2023-05-06T06:32:54.080Z,101489.46
2023-05-06T06:35:23.916Z,101486.44
2023-05-06T06:37:52.481Z,101483.11
2023-05-06T06:40:23.041Z,101484.17
2023-05-06T06:42:51.607Z,101488.20
2023-05-06T06:46:13.507Z,101488.81
2023-05-06T06:48:42.167Z,101488.41
2023-05-06T06:51:10.741Z,101486.30
2023-05-06T06:53:40.075Z,101492.86
2023-05-06T06:56:14.762Z,101491.11
2023-05-06T06:58:43.778Z,101490.53
2023-05-06T07:01:13.251Z,101489.15
2023-05-06T07:03:41.941Z,101492.23
2023-05-06T07:06:10.569Z,101493.80
2023-05-06T07:08:39.480Z,101494.13
2023-05-06T07:11:08.159Z,101491.98
2023-05-06T07:13:37.337Z,101493.38
2023-05-06T07:16:06.458Z,101493.81
2023-05-06T07:18:35.009Z,101491.73
2023-05-06T07:21:04.712Z,101488.31
2023-05-06T07:23:33.380Z,101486.63
2023-05-06T07:26:02.121Z,101486.23
2023-05-06T07:28:30.812Z,101489.77
2023-05-06T07:30:59.415Z,101486.20
2023-05-06T07:33:28.148Z,101485.49
2023-05-06T07:35:56.813Z,101492.16
2023-05-06T07:38:25.350Z,101492.71
2023-05-06T07:40:54.043Z,101496.50
2023-05-06T07:43:23.227Z,101496.30
2023-05-06T07:45:52.096Z,101495.46
2023-05-06T07:48:20.913Z,101498.90
2023-05-06T07:50:49.540Z,101499.19
2023-05-06T07:53:18.186Z,101497.68
2023-05-06T07:55:46.886Z,101491.65
2023-05-06T07:58:15.558Z,101490.92
2023-05-06T08:00:44.231Z,101487.55
2023-05-06T08:03:13.061Z,101487.73
2023-05-06T08:05:41.957Z,101484.05
2023-05-06T08:08:10.998Z,101483.94
2023-05-06T08:10:39.726Z,101487.23
2023-05-06T08:13:08.296Z,101491.56
2023-05-06T08:15:36.982Z,101494.63
2023-05-06T08:18:21.040Z,101493.58
2023-05-06T08:20:51.731Z,101490.48
2023-05-06T08:23:21.019Z,101488.13
2023-05-06T08:25:49.977Z,101489.11
2023-05-06T08:28:18.758Z,101490.61
2023-05-06T08:30:48.726Z,101494.27
2023-05-06T08:33:17.540Z,101489.49
2023-05-06T08:35:46.988Z,101491.75
2023-05-06T08:38:15.753Z,101498.34
2023-05-06T08:40:45.217Z,101499.58
2023-05-06T08:43:14.878Z,101495.74
2023-05-06T08:45:46.970Z,101494.36
2023-05-06T08:48:15.673Z,101495.06
2023-05-06T08:50:44.656Z,101499.86
2023-05-06T08:53:14.282Z,101501.59
2023-05-06T08:55:44.606Z,101492.66
2023-05-06T08:58:17.016Z,101487.36
2023-05-06T09:00:46.724Z,101484.45
2023-05-06T09:03:16.175Z,101480.70
2023-05-06T09:05:45.085Z,101477.33
2023-05-06T09:08:14.788Z,101478.19
2023-05-06T09:10:45.498Z,101476.02
2023-05-06T09:13:17.136Z,101470.39
2023-05-06T09:15:49.425Z,101472.30
2023-05-06T09:18:18.076Z,101467.86
2023-05-06T09:20:49.492Z,101471.19
2023-05-06T09:23:19.269Z,101470.80
2023-05-06T09:25:50.043Z,101461.23
2023-05-06T09:28:18.795Z,101457.59
2023-05-06T09:30:48.037Z,101461.86
2023-05-06T09:33:16.959Z,101464.67
2023-05-06T09:35:46.783Z,101462.91
2023-05-06T09:38:15.534Z,101462.09
2023-05-06T09:40:44.221Z,101462.85
2023-05-06T09:43:13.334Z,101461.66
2023-05-06T09:45:46.368Z,101456.02
2023-05-06T09:48:16.077Z,101457.09
2023-05-06T09:50:44.711Z,101461.52
2023-05-06T09:53:15.337Z,101464.86
2023-05-06T09:55:45.170Z,101466.60
2023-05-06T09:58:15.022Z,101467.76
2023-05-06T10:00:47.020Z,101460.07
2023-05-06T10:03:16.859Z,101454.02
2023-05-06T10:05:47.218Z,101454.11
2023-05-06T10:08:19.167Z,101454.94
2023-05-06T10:10:50.250Z,101454.45
2023-05-06T10:13:21.672Z,101454.77
2023-05-06T10:15:51.292Z,101454.80
2023-05-06T10:18:21.964Z,101450.80
2023-05-06T10:20:53.740Z,101450.94
2023-05-06T10:23:25.160Z,101448.25
2023-05-06T10:26:01.533Z,101443.36
2023-05-06T10:28:31.446Z,101438.61
2023-05-06T10:31:01.840Z,101433.09
2023-05-06T10:33:31.511Z,101432.96
2023-05-06T10:36:27.947Z,101427.85
2023-05-06T10:39:00.833Z,101427.45
2023-05-06T10:41:30.445Z,101424.48
2023-05-06T10:44:00.141Z,101425.39
2023-05-06T10:46:30.872Z,101428.88
2023-05-06T10:49:11.639Z,101427.86
2023-05-06T10:51:46.141Z,101423.95
2023-05-06T10:54:23.766Z,101423.36
2023-05-06T10:56:52.248Z,101419.32
2023-05-06T10:59:31.557Z,101414.09
2023-05-06T11:02:03.177Z,101414.45
2023-05-06T11:04:32.456Z,101412.95
2023-05-06T11:07:21.371Z,101413.40
2023-05-06T11:10:06.423Z,101414.13
2023-05-06T11:12:49.616Z,101411.95
2023-05-06T11:15:27.803Z,101415.56
2023-05-06T11:17:57.178Z,101411.77
2023-05-06T11:20:26.829Z,101413.11
2023-05-06T11:22:55.500Z,101411.11
2023-05-06T11:25:43.687Z,101409.66
2023-05-06T11:28:14.019Z,101405.41
2023-05-06T11:30:53.808Z,101396.42
2023-05-06T11:33:26.307Z,101397.51
2023-05-06T11:35:54.863Z,101395.03
2023-05-06T11:38:23.759Z,101392.85
2023-05-06T11:40:52.448Z,101390.65
2023-05-06T11:43:21.022Z,101389.96
2023-05-06T11:45:50.836Z,101388.66
2023-05-06T11:48:19.420Z,101390.80
2023-05-06T11:50:49.966Z,101386.64
2023-05-06T11:53:24.648Z,101389.23
2023-05-06T11:55:54.060Z,101392.27
2023-05-06T11:58:30.533Z,101391.90
2023-05-06T12:01:01.715Z,101390.30
2023-05-06T12:03:33.155Z,101385.31
2023-05-06T12:06:03.383Z,101381.27
2023-05-06T12:08:37.104Z,101382.92
2023-05-06T12:11:08.695Z,101380.77
2023-05-06T12:13:37.941Z,101382.05
2023-05-06T12:16:08.627Z,101379.80
2023-05-06T12:18:37.480Z,101380.66
2023-05-06T12:21:07.559Z,101378.86
2023-05-06T12:23:36.292Z,101372.77
2023-05-06T12:26:08.613Z,101377.45
2023-05-06T12:28:37.548Z,101375.67
2023-05-06T12:31:23.536Z,101374.58
2023-05-06T12:33:53.304Z,101378.46
2023-05-06T12:36:23.115Z,101379.61
2023-05-06T12:38:56.463Z,101378.98
2023-05-06T12:41:43.568Z,101375.93
2023-05-06T12:44:40.588Z,101372.03
2023-05-06T12:47:20.227Z,101374.90
2023-05-06T12:49:55.555Z,101369.39
2023-05-06T12:52:27.682Z,101369.60
2023-05-06T12:54:57.757Z,101368.58
2023-05-06T12:57:26.504Z,101368.75
2023-05-06T12:59:56.480Z,101368.78
2023-05-06T13:02:26.703Z,101365.88
2023-05-06T13:04:55.422Z,101368.75
2023-05-06T13:07:24.354Z,101365.30
2023-05-06T13:09:53.269Z,101359.85
2023-05-06T13:12:21.768Z,101355.16
2023-05-06T13:14:50.309Z,101358.90
2023-05-06T13:17:19.069Z,101357.59
2023-05-06T13:19:47.870Z,101344.61
2023-05-06T13:25:28.150Z,101351.07
2023-05-06T13:27:56.998Z,101349.59
2023-05-06T13:30:28.035Z,101347.91
2023-05-06T13:32:59.408Z,101349.13
2023-05-06T13:35:27.836Z,101351.23
2023-05-06T13:38:01.887Z,101347.86
2023-05-06T13:40:31.445Z,101350.80
2023-05-06T13:43:00.305Z,101346.94
2023-05-06T13:45:29.274Z,101343.84
2023-05-06T13:47:58.395Z,101342.66
2023-05-06T13:50:35.763Z,101341.06
2023-05-06T13:53:07.555Z,101336.03
2023-05-06T13:55:41.177Z,101336.75
2023-05-06T13:58:18.036Z,101335.04
2023-05-06T14:00:50.112Z,101332.98
2023-05-06T14:03:21.788Z,101332.66
2023-05-06T14:05:55.123Z,101333.98
2023-05-06T14:08:24.347Z,101337.58
2023-05-06T14:10:53.350Z,101337.16
2023-05-06T14:13:22.069Z,101334.30
2023-05-06T14:15:52.753Z,101330.41
2023-05-06T14:18:23.664Z,101333.58
2023-05-06T14:20:54.916Z,101330.20
2023-05-06T14:23:23.786Z,101328.63
2023-05-06T14:25:54.728Z,101326.50
2023-05-06T14:28:24.053Z,101324.22
2023-05-06T14:30:53.339Z,101325.98
2023-05-06T14:33:23.624Z,101324.48
2023-05-06T14:35:53.558Z,101324.40
2023-05-06T14:38:25.715Z,101326.19
2023-05-06T14:40:59.300Z,101323.70
2023-05-06T14:43:29.165Z,101321.32
2023-05-06T14:46:00.476Z,101323.91
2023-05-06T14:48:29.888Z,101321.29
2023-05-06T14:50:59.856Z,101322.11
2023-05-06T14:53:28.828Z,101323.98
2023-05-06T14:55:57.645Z,101317.58
2023-05-06T14:58:27.063Z,101315.98
2023-05-06T15:00:56.316Z,101314.60
2023-05-06T15:03:25.305Z,101314.31
2023-05-06T15:05:55.124Z,101314.45
2023-05-06T15:08:25.527Z,101314.14
2023-05-06T15:10:55.123Z,101313.05
2023-05-06T15:13:31.074Z,101310.78
2023-05-06T15:16:09.085Z,101311.17
2023-05-06T15:18:43.624Z,101303.65
2023-05-06T15:21:16.223Z,101302.47
2023-05-06T15:23:48.248Z,101304.60
2023-05-06T15:26:20.458Z,101301.63
2023-05-06T15:28:49.347Z,101300.91
2023-05-06T15:31:20.513Z,101300.73
2023-05-06T15:33:49.653Z,101303.86
2023-05-06T15:36:20.046Z,101299.70
2023-05-06T15:39:00.137Z,101305.44
2023-05-06T15:41:35.384Z,101309.11
2023-05-06T15:44:06.038Z,101304.44
2023-05-06T15:46:35.172Z,101298.04
2023-05-06T15:49:26.163Z,101296.70
2023-05-06T15:51:53.626Z,101294.30
2023-05-06T15:54:27.086Z,101293.45
2023-05-06T15:57:04.858Z,101295.98
2023-05-06T15:59:35.296Z,101294.08
2023-05-06T16:04:37.921Z,101293.17
2023-05-06T16:07:08.011Z,101298.32
2023-05-06T16:09:37.233Z,101294.77
2023-05-06T16:12:07.201Z,101293.52
2023-05-06T16:14:38.998Z,101291.71
2023-05-06T16:17:07.851Z,101294.32
2023-05-06T16:19:37.374Z,101294.65
2023-05-06T16:22:07.403Z,101293.46
2023-05-06T16:24:37.096Z,101296.87
2023-05-06T16:27:06.358Z,101293.94
2023-05-06T16:29:38.237Z,101294.48
2023-05-06T16:32:09.470Z,101292.32
2023-05-06T16:34:40.343Z,101289.13
2023-05-06T16:37:11.551Z,101293.75
2023-05-06T16:39:49.299Z,101293.65
2023-05-06T16:42:18.249Z,101292.10
2023-05-06T16:44:50.512Z,101290.10
2023-05-06T16:47:24.624Z,101287.30
2023-05-06T16:49:53.947Z,101287.70
2023-05-06T16:52:25.140Z,101288.47
2023-05-06T16:55:01.860Z,101287.85
2023-05-06T16:57:34.657Z,101292.79
2023-05-06T17:00:08.111Z,101296.41
2023-05-06T17:02:39.830Z,101301.80
2023-05-06T17:05:10.681Z,101304.59
2023-05-06T17:07:41.829Z,101310.02
2023-05-06T17:10:13.442Z,101313.48
2023-05-06T17:12:50.167Z,101318.20
2023-05-06T17:15:19.094Z,101320.38
2023-05-06T17:17:48.467Z,101322.97
2023-05-06T17:20:20.516Z,101321.63
2023-05-06T17:22:52.969Z,101324.32
2023-05-06T17:25:21.717Z,101323.77
2023-05-06T17:27:50.660Z,101324.88
2023-05-06T17:30:21.039Z,101326.83
2023-05-06T17:32:50.054Z,101329.30
2023-05-06T17:35:20.447Z,101327.85
2023-05-06T17:37:49.000Z,101333.78
2023-05-06T17:40:17.956Z,101339.15
2023-05-06T17:42:46.582Z,101346.34
2023-05-06T17:45:17.781Z,101351.89
2023-05-06T17:47:46.586Z,101352.52
2023-05-06T17:50:15.298Z,101354.81
2023-05-06T17:52:44.299Z,101353.23
2023-05-06T17:55:17.076Z,101354.64
2023-05-06T17:57:46.593Z,101361.27
2023-05-06T18:00:17.093Z,101364.68
2023-05-06T18:02:46.459Z,101367.38
2023-05-06T18:05:16.521Z,101372.05
2023-05-06T18:07:45.523Z,101370.95
2023-05-06T18:10:14.417Z,101375.00
2023-05-06T18:12:48.191Z,101376.32
2023-05-06T18:15:16.812Z,101377.97
2023-05-06T18:17:46.229Z,101380.98
2023-05-06T18:20:18.882Z,101384.45
2023-05-06T18:22:47.841Z,101387.49
2023-05-06T18:25:16.727Z,101381.81
2023-05-06T18:27:45.367Z,101385.11
2023-05-06T18:30:18.483Z,101387.48
2023-05-06T18:32:49.337Z,101389.63
2023-05-06T18:35:19.775Z,101390.70
2023-05-06T18:37:48.280Z,101389.15
2023-05-06T18:40:18.208Z,101387.48
2023-05-06T18:42:49.284Z,101389.41
2023-05-06T18:45:18.224Z,101395.02
2023-05-06T18:47:47.194Z,101396.50
2023-05-06T18:50:16.740Z,101396.44
2023-05-06T18:52:45.345Z,101395.80
2023-05-06T18:55:13.822Z,101399.66
2023-05-06T18:57:42.855Z,101396.88
2023-05-06T19:00:13.745Z,101394.51
2023-05-06T19:02:42.298Z,101395.48
2023-05-06T19:05:12.186Z,101392.60
2023-05-06T19:07:41.721Z,101389.76
2023-05-06T19:10:10.869Z,101388.31
2023-05-06T19:12:41.468Z,101385.31
2023-05-06T19:15:12.749Z,101387.64
2023-05-06T19:17:41.803Z,101383.83
2023-05-06T19:20:12.107Z,101380.43
2023-05-06T19:22:41.673Z,101385.88
2023-05-06T19:25:27.871Z,101389.21
2023-05-06T19:27:56.913Z,101394.23
2023-05-06T19:30:25.954Z,101392.33
2023-05-06T19:32:55.542Z,101390.75
2023-05-06T19:35:25.985Z,101394.00
2023-05-06T19:37:54.671Z,101390.95
2023-05-06T19:40:23.239Z,101387.25
2023-05-06T19:42:52.214Z,101384.92
2023-05-06T19:45:20.929Z,101380.03
2023-05-06T19:47:52.657Z,101384.28
2023-05-06T19:50:21.615Z,101382.30
2023-05-06T19:52:50.251Z,101383.53
2023-05-06T19:55:19.050Z,101382.52
2023-05-06T19:57:48.060Z,101373.38
2023-05-06T20:00:20.738Z,101377.70
2023-05-06T20:02:49.500Z,101377.90
2023-05-06T20:05:18.609Z,101383.66
2023-05-06T20:07:47.546Z,101386.77
2023-05-06T20:10:16.717Z,101383.83
2023-05-06T20:12:45.695Z,101379.73
2023-05-06T20:15:14.263Z,101381.24
2023-05-06T20:17:43.001Z,101387.23
2023-05-06T20:20:11.992Z,101385.87
2023-05-06T20:22:41.575Z,101383.81
2023-05-06T20:25:18.915Z,101388.92
2023-05-06T20:27:47.450Z,101386.13
2023-05-06T20:30:16.128Z,101385.60
2023-05-06T20:32:48.271Z,101387.11
2023-05-06T20:35:17.865Z,101389.53
2023-05-06T20:37:46.984Z,101384.23
2023-05-06T20:40:16.013Z,101388.08
2023-05-06T20:42:44.525Z,101388.52
2023-05-06T20:45:13.530Z,101390.18
2023-05-06T20:47:42.821Z,101390.85
2023-05-06T20:53:48.643Z,101388.81
2023-05-06T20:56:23.339Z,101380.99
2023-05-06T20:58:56.356Z,101385.94
2023-05-06T21:01:26.114Z,101379.38
2023-05-06T21:03:54.635Z,101375.73
2023-05-06T21:06:23.291Z,101381.02
2023-05-06T21:08:52.167Z,101382.81
2023-05-06T21:11:21.188Z,101378.02
2023-05-06T21:13:50.193Z,101380.26
2023-05-06T21:16:19.164Z,101372.80
2023-05-06T21:18:49.688Z,101374.67
2023-05-06T21:21:20.681Z,101360.23
2023-05-06T21:23:49.261Z,101362.82
2023-05-06T21:26:18.398Z,101356.73
2023-05-06T21:28:51.374Z,101359.23
2023-05-06T21:31:22.526Z,101364.98
2023-05-06T21:33:55.498Z,101363.91
2023-05-06T21:36:24.393Z,101375.61
2023-05-06T21:39:12.160Z,101379.83
2023-05-06T21:41:41.033Z,101379.78
2023-05-06T21:44:10.407Z,101380.55
2023-05-06T21:46:39.214Z,101387.96
2023-05-06T21:49:07.805Z,101381.17
2023-05-06T21:51:36.917Z,101389.09
2023-05-06T21:54:05.511Z,101390.30
2023-05-06T21:56:34.077Z,101389.34
2023-05-06T21:59:02.567Z,101396.95
2023-05-06T22:01:32.271Z,101395.52
2023-05-06T22:04:01.004Z,101395.70
2023-05-06T22:06:29.639Z,101401.16
2023-05-06T22:08:58.112Z,101394.60
2023-05-06T22:11:26.699Z,101399.14
2023-05-06T22:13:55.152Z,101403.17
2023-05-06T22:16:23.747Z,101394.83
2023-05-06T22:18:53.036Z,101395.96
2023-05-06T22:21:22.024Z,101401.27
2023-05-06T22:23:50.450Z,101403.89
2023-05-06T22:26:18.942Z,101400.09
2023-05-06T22:28:47.929Z,101400.28
2023-05-06T22:31:16.657Z,101402.62
2023-05-06T22:33:45.175Z,101401.96
2023-05-06T22:36:14.359Z,101399.12
2023-05-06T22:38:43.020Z,101402.92
2023-05-06T22:41:11.568Z,101403.39
2023-05-06T22:43:40.144Z,101397.58
2023-05-06T22:46:08.823Z,101392.50
2023-05-06T22:48:37.518Z,101394.25
2023-05-06T22:51:06.691Z,101390.86
2023-05-06T22:53:35.274Z,101395.61
2023-05-06T22:56:03.936Z,101391.81
2023-05-06T22:58:32.481Z,101387.30
2023-05-06T23:01:02.026Z,101387.27
2023-05-06T23:03:30.692Z,101386.14
2023-05-06T23:05:59.225Z,101386.80
2023-05-06T23:08:27.820Z,101389.39
2023-05-06T23:10:56.295Z,101386.63
2023-05-06T23:13:24.867Z,101386.13
2023-05-06T23:15:53.387Z,101386.45
2023-05-06T23:18:22.036Z,101392.56
2023-05-06T23:20:50.584Z,101393.78
2023-05-06T23:23:19.095Z,101390.55
2023-05-06T23:25:47.719Z,101394.20
2023-05-06T23:28:16.197Z,101391.65
2023-05-06T23:30:45.122Z,101395.31
2023-05-06T23:33:13.776Z,101387.16
2023-05-06T23:35:42.400Z,101388.27
2023-05-06T23:38:10.978Z,101391.76
2023-05-06T23:40:39.633Z,101389.75
2023-05-06T23:43:09.981Z,101382.43
2023-05-06T23:45:38.587Z,101380.81
2023-05-06T23:48:07.423Z,101377.86
2023-05-06T23:50:36.190Z,101377.02
2023-05-06T23:53:04.617Z,101371.22
2023-05-06T23:55:33.455Z,101370.03
2023-05-06T23:58:01.991Z,101378.39
